• Join FlightAware (Why Join?)
  • Login
  • US Flag 
Gobble Gobble! 
11:16AM EST


 

Airport Tracker/Info


-or-


 

Live Flight TrackerFlight Track Log ✈ THY2460 ✈ 14-Oct-2013 ✈ LTBA / IST - LTAF / ADA

Flight Track Log - Related Links

Times and Time Zones

All times are in EDT time to prevent confusion due to time zone crossing. See the THY2460 flight status page for this flight to view local times or setup timezone preferences in your user account.

Time Position Orientation Groundspeed Altitude Reporting Facility
EDT Latitude Longitude Course Direction KTS MPH feet Rate Location/Type
04:41AM 40.5218 29.6272 126° Southeast  Level Estimated
04:42AM 40.4563 29.7414 127° Southeast  Level Estimated
04:43AM 40.3907 29.8554 127° Southeast  Level Estimated
04:44AM 40.3250 29.9693 127° Southeast  Level Estimated
04:45AM 40.2592 30.0828 127° Southeast  Level Estimated
04:46AM 40.1932 30.1962 127° Southeast  Level Estimated
04:47AM 40.1272 30.3094 127° Southeast  Level Estimated
04:48AM 40.0611 30.4223 127° Southeast  Level Estimated
04:49AM 39.9948 30.5350 127° Southeast  Level Estimated
04:50AM 39.9285 30.6475 128° Southeast  Level Estimated
04:51AM 39.8620 30.7598 128° Southeast  Level Estimated
04:52AM 39.7954 30.8718 128° Southeast  Level Estimated
04:53AM 39.7287 30.9837 128° Southeast  Level Estimated
04:54AM 39.6619 31.0953 128° Southeast  Level Estimated
04:55AM 39.5951 31.2067 128° Southeast  Level Estimated
04:56AM 39.5280 31.3179 128° Southeast  Level Estimated
04:57AM 39.4609 31.4288 128° Southeast  Level Estimated
04:58AM 39.3937 31.5396 128° Southeast  Level Estimated
04:59AM 39.3264 31.6502 128° Southeast  Level Estimated
05:00AM 39.2590 31.7605 128° Southeast  Level Estimated
05:01AM 39.1914 31.8706 128° Southeast  Level Estimated
05:02AM 39.1238 31.9805 128° Southeast  Level Estimated
05:03AM 39.0561 32.0902 128° Southeast  Level Estimated
05:04AM 38.9883 32.1997 129° Southeast  Level Estimated
05:05AM 38.9203 32.3090 129° Southeast  Level Estimated
05:06AM 38.8523 32.4180 129° Southeast  Level Estimated
05:07AM 38.7841 32.5269 129° Southeast  Level Estimated
05:08AM 38.7159 32.6356 129° Southeast  Level Estimated
05:09AM 38.6475 32.7440 129° Southeast  Level Estimated
05:10AM 38.5791 32.8522 129° Southeast  Level Estimated
05:11AM 38.5106 32.9603 129° Southeast  Level Estimated
05:12AM 38.4419 33.0681 129° Southeast  Level Estimated
05:13AM 38.3732 33.1757 129° Southeast  Level Estimated
05:14AM 38.3044 33.2831 129° Southeast  Level Estimated
05:15AM 38.2354 33.3904 129° Southeast  Level Estimated
05:16AM 38.1664 33.4974 129° Southeast  Level Estimated
05:17AM 38.0973 33.6042 129° Southeast  Level Estimated
05:18AM 38.0280 33.7108 129° Southeast  Level Estimated
05:19AM 37.9587 33.8172 130° Southeast  Level Estimated
05:20AM 37.8893 33.9234 130° Southeast  Level Estimated
05:21AM 37.8198 34.0294 130° Southeast  Level Estimated
05:22AM 37.7502 34.1352 130° Southeast  Level Estimated
05:23AM 37.6805 34.2408 130° Southeast  Level Estimated
05:24AM 37.6107 34.3462 130° Southeast  Level Estimated
05:25AM 37.5408 34.4514 130° Southeast  Level Estimated
05:26AM 37.4708 34.5564 130° Southeast  Level Estimated
05:27AM 37.4007 34.6612 130° Southeast  Level Estimated
05:28AM 37.3305 34.7659 130° Southeast  Level Estimated
05:29AM 37.2603 34.8703 130° Southeast  Level Estimated
05:30AM 37.1899 34.9745 130° Southeast  Level Estimated
05:31AM 37.1195 35.0785 130° Southeast  Level Estimated
05:32AM 37.0490 35.1824 130° Southeast  Level Estimated
05:33AM 36.9822 35.2804 130° Southeast  Level Estimated
05:34AM 36.9822 35.2804 202° Southwest  Level Estimated
05:35AM 36.9822 35.2804 202° Southwest  Level Estimated
05:36AM 36.9822 35.2804 202° Southwest  Level Estimated
05:37AM 36.9822 35.2804 202° Southwest  Level Estimated
05:38AM 36.9822 35.2804 202° Southwest  Level Estimated
05:39AM 36.9822 35.2804 202° Southwest  Level Estimated
05:40AM 36.9822 35.2804 202° Southwest  Level Estimated
05:41AM 36.9822 35.2804 202° Southwest  Level Estimated
05:42AM 36.9822 35.2804 202° Southwest  Level Estimated
05:43AM 36.9822 35.2804 202° Southwest  Level Estimated
05:44AM 36.9822 35.2804 202° Southwest  Level Estimated
05:45AM 36.9822 35.2804 202° Southwest  Level Estimated
05:46AM 36.9822 35.2804 202° Southwest  Level Estimated
05:47AM 36.9822 35.2804 202° Southwest  Level Estimated
05:48AM 36.9822 35.2804 202° Southwest  Level Estimated
05:49AM 36.9822 35.2804 202° Southwest  Level Estimated